Ana Sayfa
METAR-TAF:

METAR-TAF

Havaalanları :

Larnaka Uluslararası Havalimanı

Larnaka, Kıbrıs

Enlem: 34-53N, Boylam: 033-38E, yükseklik: 2 m

Güncel hava durumu gözlemi

Rapor saat 09:00 UTC de 19 dakika önce yapıldı.
Rüzgar kuzeydoğudan 10 kt
Sıcaklık 23°C
Nem 53%
Basınç 1018 hPa
Görüş mesafesi 10 km veya daha fazla
1500 m altında bulut yok ve kümülonimbus yok

METAR: LCLK 190900Z 05010KT CAVOK 23/13 Q1018 NOSIG

Saat: 11:19 (09:19 UTC)

Tahmin

Rapor saat 05:30 UTC de 3 saat ve 49 dakika önce yapıldı.
Ayın 19'si saat 06 UTC'den ayın 20'si saat 06 UTC'ye kadar geçerli Tahmin
Rüzgar kuzeydan 8 kt
Görüş mesafesi 10 km veya daha fazla
2500 ft yükseklikte az bulutlu
Dönüşüyor
ayın 19'si saat 08 UTC'den ayın 19'si saat 10 UTC'ye kadar
Rüzgar doğu/kuzeydoğudan 12 kt
Dönüşüyor
ayın 19'si saat 15 UTC'den ayın 19'si saat 18 UTC'ye kadar
Rüzgar kuzey/kuzeybatıdan 7 kt

TAF: LCLK 190530Z 1906/2006 36008KT 9999 FEW025 BECMG 1908/1910 06012KT BECMG 1915/1918 33007KT

4.000'den fazla havaalanı için hava durumu gözlemleri ve tahminleri (METAR ve TAF raporları).

Kullanılabilir istasyonlar harita üzerinde sarı ve kırmızı noktalarla gösterilir.

İstasyonun adını görmek için fareyi noktanın üzerinde gezdirin.

Sonrasında hava gözlem ve tahminlerini görmek için tıklayın.

Haritayı değiştirmek için: yaklaştırmak için siyah artı işaretli yeşil düğmeye ve uzaklaştırmak için de eksi işaretli düğmeye hızla tıklayın; bitişik haritalar için yeşil okları kullanın.


METAR-TAF: